Time;durP1;ratioP1;P1;durP2;ratioP2;P2;SDS_P1;SDS_P2;PMS_P1;PMS_P2;Temp;Humidity;BMP_temperature;BMP_pressure;BME280_temperature;BME280_humidity;BME280_pressure;Samples;Min_cycle;Max_cycle;Signal;HPM_P1;HPM_P2
2021/01/23 00:02:12;;;;;;;17.57;12.30;;;0.90;99.90;;;;;;4943264;28;20187;-77
2021/01/23 00:04:39;;;;;;;22.93;12.63;;;0.90;99.90;;;;;;4942893;28;20184;-78
2021/01/23 00:07:05;;;;;;;17.83;11.67;;;0.90;99.90;;;;;;4943184;28;20191;-78
2021/01/23 00:09:30;;;;;;;17.23;12.27;;;0.90;99.90;;;;;;4942813;28;20212;-77
2021/01/23 00:11:56;;;;;;;17.87;12.27;;;0.90;99.90;;;;;;4942894;28;20211;-77
2021/01/23 00:14:21;;;;;;;18.03;11.57;;;0.90;99.90;;;;;;4958956;28;20176;-80
2021/01/23 00:16:47;;;;;;;16.20;11.23;;;0.80;99.90;;;;;;4942686;28;20678;-78
2021/01/23 00:19:12;;;;;;;16.00;11.20;;;0.80;99.90;;;;;;4958447;28;20216;-79
2021/01/23 00:21:38;;;;;;;19.23;11.23;;;0.80;99.90;;;;;;4942820;28;20189;-78
2021/01/23 00:24:04;;;;;;;17.30;11.13;;;0.80;99.90;;;;;;4942866;28;20529;-78
2021/01/23 00:26:30;;;;;;;21.07;13.13;;;0.80;99.90;;;;;;4942160;28;20216;-81
2021/01/23 00:28:55;;;;;;;18.97;12.23;;;0.80;99.90;;;;;;4942530;28;20601;-79
2021/01/23 00:31:21;;;;;;;24.60;13.40;;;0.90;99.90;;;;;;4958628;28;20179;-80
2021/01/23 00:33:46;;;;;;;19.97;13.57;;;0.80;99.90;;;;;;4974614;28;20180;-78
2021/01/23 00:36:12;;;;;;;20.17;12.03;;;0.80;99.90;;;;;;4958239;28;20189;-77
2021/01/23 00:38:37;;;;;;;21.63;12.37;;;0.80;99.90;;;;;;4958446;28;20675;-77
2021/01/23 00:41:03;;;;;;;16.97;11.77;;;0.80;99.90;;;;;;4958368;28;20670;-78
2021/01/23 00:43:28;;;;;;;21.10;12.70;;;0.80;99.90;;;;;;4958464;28;20716;-80
2021/01/23 00:45:54;;;;;;;19.47;12.27;;;0.80;99.90;;;;;;4973967;28;20680;-78
2021/01/23 00:48:19;;;;;;;18.97;11.83;;;0.80;99.90;;;;;;4990291;28;20678;-77
2021/01/23 00:50:45;;;;;;;15.53;11.57;;;0.70;99.90;;;;;;4974200;28;20258;-78
2021/01/23 00:53:10;;;;;;;16.07;11.27;;;0.70;99.90;;;;;;4974276;28;20179;-81
2021/01/23 00:55:36;;;;;;;18.57;11.70;;;0.70;99.90;;;;;;4974432;28;20184;-78
2021/01/23 00:58:03;;;;;;;17.20;11.63;;;0.70;99.90;;;;;;4979815;28;20195;-78
2021/01/23 01:00:29;;;;;;;25.27;12.70;;;0.70;99.90;;;;;;4939034;29;20199;-78
2021/01/23 01:02:54;;;;;;;19.80;12.00;;;0.70;99.90;;;;;;4938716;29;20181;-78
2021/01/23 01:05:20;;;;;;;17.43;11.40;;;0.60;99.90;;;;;;4938849;29;20209;-78
2021/01/23 01:07:45;;;;;;;23.83;12.13;;;0.60;99.90;;;;;;4938449;29;20637;-77
2021/01/23 01:10:11;;;;;;;18.10;11.13;;;0.60;99.90;;;;;;4940322;28;20307;-80
2021/01/23 01:12:37;;;;;;;21.27;11.60;;;0.70;99.90;;;;;;4955742;28;20600;-78
2021/01/23 01:15:03;;;;;;;14.20;10.50;;;0.70;99.90;;;;;;4970855;28;20194;-79
2021/01/23 01:17:29;;;;;;;17.33;10.97;;;0.70;99.90;;;;;;4970195;28;20279;-80
2021/01/23 01:19:54;;;;;;;20.27;12.03;;;0.70;99.90;;;;;;4954482;29;20218;-78
2021/01/23 01:22:20;;;;;;;16.40;11.13;;;0.70;99.90;;;;;;4954314;29;20272;-78
2021/01/23 01:24:46;;;;;;;18.13;11.57;;;0.60;99.90;;;;;;4954271;29;20578;-78
2021/01/23 01:27:11;;;;;;;19.00;11.53;;;0.60;99.90;;;;;;4938344;29;20185;-79
2021/01/23 01:29:37;;;;;;;15.90;11.30;;;0.60;99.90;;;;;;4970360;28;20200;-77
2021/01/23 01:32:02;;;;;;;16.43;11.17;;;0.60;99.90;;;;;;4938319;29;20231;-78
2021/01/23 01:34:28;;;;;;;17.83;11.03;;;0.60;99.90;;;;;;4938062;29;20190;-79
2021/01/23 01:36:53;;;;;;;23.17;11.87;;;0.60;99.90;;;;;;4949173;28;20188;-80
2021/01/23 01:39:19;;;;;;;19.97;11.40;;;0.70;99.90;;;;;;4973458;28;20215;-77
2021/01/23 01:41:44;;;;;;;16.63;11.30;;;0.60;99.90;;;;;;4973557;28;20186;-78
2021/01/23 01:44:10;;;;;;;16.63;11.43;;;0.70;99.90;;;;;;4989497;28;20188;-79
2021/01/23 01:46:36;;;;;;;15.77;10.97;;;0.70;99.90;;;;;;4973000;28;20269;-80
2021/01/23 01:49:03;;;;;;;16.63;11.03;;;0.70;99.90;;;;;;4973000;28;20211;-77
2021/01/23 01:51:29;;;;;;;16.43;10.53;;;0.70;99.90;;;;;;4956977;28;20214;-78
2021/01/23 01:53:54;;;;;;;17.83;10.93;;;0.60;99.90;;;;;;4989175;28;20209;-79
2021/01/23 01:56:20;;;;;;;18.70;10.93;;;0.60;99.90;;;;;;4956953;28;20215;-77
2021/01/23 01:58:45;;;;;;;17.00;10.77;;;0.70;99.90;;;;;;4972129;28;20197;-77
2021/01/23 02:01:11;;;;;;;18.10;11.70;;;0.70;99.90;;;;;;4972842;28;20635;-77
2021/01/23 02:03:51;;;;;;;17.07;11.47;;;0.60;99.90;;;;;;4973026;28;20696;-77
2021/01/23 02:06:38;;;;;;;20.33;11.67;;;0.60;99.90;;;;;;4972604;28;20216;-78
2021/01/23 02:09:18;;;;;;;16.27;11.10;;;0.70;99.90;;;;;;4986918;28;20197;-78
2021/01/23 02:12:12;;;;;;;18.87;10.80;;;0.70;99.90;;;;;;4985905;28;20545;-77
2021/01/23 02:14:40;;;;;;;17.03;10.87;;;0.70;99.90;;;;;;4956682;28;20180;-77
2021/01/23 02:17:11;;;;;;;21.73;10.77;;;0.70;99.90;;;;;;4972354;28;20188;-78
2021/01/23 02:19:59;;;;;;;17.27;10.03;;;0.80;99.90;;;;;;4956549;28;20676;-79
2021/01/23 02:22:48;;;;;;;14.87;9.80;;;0.70;99.90;;;;;;4972728;28;20564;-77
2021/01/23 02:25:14;;;;;;;15.60;9.83;;;0.70;99.90;;;;;;4940609;28;20220;-77
2021/01/23 02:28:07;;;;;;;16.40;10.60;;;0.70;99.90;;;;;;4956443;28;20825;-77
2021/01/23 02:30:45;;;;;;;14.13;9.80;;;0.70;99.90;;;;;;4956282;28;20201;-79
2021/01/23 02:33:10;;;;;;;16.03;10.63;;;0.70;99.90;;;;;;4956668;28;20209;-78
2021/01/23 02:35:36;;;;;;;16.23;11.03;;;0.70;99.90;;;;;;4956475;28;20212;-77
2021/01/23 02:38:01;;;;;;;16.33;10.13;;;0.80;99.90;;;;;;4924299;28;20187;-77
2021/01/23 02:40:27;;;;;;;17.20;10.50;;;1.00;99.90;;;;;;4956292;28;20207;-79
2021/01/23 02:42:53;;;;;;;16.63;10.37;;;1.00;99.90;;;;;;4924377;28;20184;-77
2021/01/23 02:45:19;;;;;;;22.63;11.47;;;1.00;99.90;;;;;;4940287;28;20283;-77
2021/01/23 02:47:46;;;;;;;14.73;10.63;;;1.00;99.90;;;;;;4924115;28;20633;-77
2021/01/23 02:50:12;;;;;;;15.90;9.90;;;1.10;99.90;;;;;;4956138;28;20565;-78
2021/01/23 02:53:02;;;;;;;17.83;10.47;;;1.10;99.90;;;;;;4956085;28;20278;-78
2021/01/23 02:55:30;;;;;;;15.77;9.93;;;1.10;99.90;;;;;;4952802;29;20657;-80
2021/01/23 02:57:56;;;;;;;16.47;10.77;;;1.20;99.90;;;;;;4952312;29;20193;-80
2021/01/23 03:00:22;;;;;;;15.33;10.43;;;1.20;99.90;;;;;;4921155;29;20204;-79
2021/01/23 03:02:51;;;;;;;15.33;10.13;;;1.20;99.90;;;;;;4936722;29;20221;-81
2021/01/23 03:05:16;;;;;;;16.60;10.87;;;1.30;99.90;;;;;;4936928;29;20219;-77
2021/01/23 03:07:42;;;;;;;15.17;10.07;;;1.30;99.90;;;;;;4936729;29;20181;-81
2021/01/23 03:10:08;;;;;;;17.70;10.70;;;1.30;99.90;;;;;;4940838;28;20232;-81
2021/01/23 03:12:34;;;;;;;17.43;10.33;;;1.30;99.90;;;;;;4977033;28;20544;-81
2021/01/23 03:14:59;;;;;;;17.60;10.43;;;1.30;99.90;;;;;;4978587;28;20220;-79
2021/01/23 03:17:25;;;;;;;13.60;10.43;;;1.30;99.90;;;;;;4961994;28;20192;-79
2021/01/23 03:19:50;;;;;;;17.37;10.57;;;1.30;99.90;;;;;;4961935;28;20250;-77
2021/01/23 03:22:16;;;;;;;20.33;10.57;;;1.30;99.90;;;;;;4961298;28;20227;-81
2021/01/23 03:24:41;;;;;;;17.67;9.80;;;1.30;99.90;;;;;;4961966;28;20560;-77
2021/01/23 03:27:07;;;;;;;16.60;9.93;;;1.30;99.90;;;;;;4962344;28;20225;-77
2021/01/23 03:29:32;;;;;;;14.23;9.57;;;1.50;99.90;;;;;;4979236;28;20208;-78
2021/01/23 03:31:58;;;;;;;15.60;10.43;;;1.40;99.90;;;;;;4962355;28;20180;-79
2021/01/23 03:34:23;;;;;;;18.63;11.03;;;1.30;99.90;;;;;;4978596;28;20190;-77
2021/01/23 03:36:49;;;;;;;14.27;9.80;;;1.40;99.90;;;;;;4954297;28;20190;-78
2021/01/23 03:39:15;;;;;;;18.80;10.23;;;1.40;99.90;;;;;;4978292;28;20204;-80
2021/01/23 03:41:40;;;;;;;19.40;10.13;;;1.40;99.90;;;;;;4929966;28;20195;-78
2021/01/23 03:44:06;;;;;;;18.33;10.73;;;1.30;99.90;;;;;;4930447;28;20177;-79
2021/01/23 03:46:33;;;;;;;17.90;10.77;;;1.30;99.90;;;;;;4979269;28;20267;-77
2021/01/23 03:48:58;;;;;;;16.97;10.50;;;1.30;99.90;;;;;;4930166;28;20615;-79
2021/01/23 03:51:24;;;;;;;18.90;9.73;;;1.20;99.90;;;;;;4962006;28;20184;-77
2021/01/23 03:53:49;;;;;;;16.40;10.20;;;1.20;99.90;;;;;;4946304;28;20201;-78
2021/01/23 03:56:15;;;;;;;15.17;10.03;;;1.20;99.90;;;;;;4961847;28;20217;-81
2021/01/23 03:58:40;;;;;;;17.40;10.43;;;1.20;99.90;;;;;;4945997;28;20235;-78
2021/01/23 04:01:06;;;;;;;19.73;10.30;;;1.10;99.90;;;;;;4945811;28;20192;-78
2021/01/23 04:03:31;;;;;;;15.73;10.47;;;1.20;99.90;;;;;;4929945;28;20207;-78
2021/01/23 04:05:57;;;;;;;19.27;10.97;;;1.20;99.90;;;;;;4929905;28;20212;-81
2021/01/23 04:08:22;;;;;;;15.50;10.30;;;1.20;99.90;;;;;;4929716;28;20176;-77
2021/01/23 04:10:48;;;;;;;17.67;10.90;;;1.20;99.90;;;;;;4945906;28;20169;-79
2021/01/23 04:13:14;;;;;;;19.67;10.30;;;1.20;99.90;;;;;;4961759;28;20173;-77
2021/01/23 04:15:39;;;;;;;20.67;10.27;;;1.20;99.90;;;;;;4978192;28;20682;-77
2021/01/23 04:18:05;;;;;;;19.93;9.83;;;1.10;99.90;;;;;;4961588;28;20184;-77
2021/01/23 04:20:30;;;;;;;18.73;11.50;;;1.20;99.90;;;;;;4961277;28;20232;-79
2021/01/23 04:22:56;;;;;;;17.77;11.53;;;1.20;99.90;;;;;;4941683;28;20217;-78
2021/01/23 04:25:22;;;;;;;20.03;11.27;;;1.20;99.90;;;;;;4974868;28;20205;-79
2021/01/23 04:27:47;;;;;;;17.10;10.80;;;1.30;99.90;;;;;;4942654;28;20177;-77
2021/01/23 04:30:13;;;;;;;16.97;11.33;;;1.30;99.90;;;;;;4976075;28;20227;-77
2021/01/23 04:32:39;;;;;;;19.23;11.30;;;1.30;99.90;;;;;;4959052;28;20588;-77
2021/01/23 04:35:05;;;;;;;18.43;12.03;;;1.30;99.90;;;;;;4942947;28;20552;-78
2021/01/23 04:37:31;;;;;;;19.27;11.53;;;1.30;99.90;;;;;;4958659;28;20189;-78
2021/01/23 04:39:56;;;;;;;20.40;12.00;;;1.40;99.90;;;;;;4958274;28;20566;-78
2021/01/23 04:42:22;;;;;;;19.20;11.30;;;1.40;99.90;;;;;;4990899;28;20195;-78
2021/01/23 04:44:47;;;;;;;17.17;12.30;;;1.50;99.90;;;;;;4990710;28;20184;-76
2021/01/23 04:47:13;;;;;;;22.00;12.20;;;1.50;99.90;;;;;;4974401;28;20194;-77
2021/01/23 04:49:39;;;;;;;18.77;12.13;;;1.50;99.90;;;;;;4974200;28;20204;-77
2021/01/23 04:52:05;;;;;;;19.30;10.97;;;1.50;99.90;;;;;;4974363;28;20211;-79
2021/01/23 04:54:31;;;;;;;18.73;11.43;;;1.40;99.90;;;;;;4974203;28;20655;-78
2021/01/23 04:56:57;;;;;;;17.23;10.93;;;1.30;99.90;;;;;;4973882;28;20187;-77
2021/01/23 04:59:22;;;;;;;20.97;12.37;;;1.40;99.90;;;;;;4974128;28;20692;-79
2021/01/23 05:02:13;;;;;;;21.23;11.23;;;1.40;99.90;;;;;;4974040;28;20225;-77
2021/01/23 05:04:54;;;;;;;22.20;11.20;;;1.40;99.90;;;;;;4973718;28;20181;-80
2021/01/23 05:07:39;;;;;;;17.53;11.47;;;1.30;99.90;;;;;;4973700;28;20268;-78
2021/01/23 05:10:13;;;;;;;18.13;12.07;;;1.30;99.90;;;;;;4956769;28;20313;-79
2021/01/23 05:12:43;;;;;;;24.40;11.73;;;1.30;99.90;;;;;;4953356;29;20192;-80
2021/01/23 05:15:18;;;;;;;20.30;11.33;;;1.40;99.90;;;;;;4970347;28;20166;-81
2021/01/23 05:17:48;;;;;;;21.47;11.90;;;1.50;99.90;;;;;;4970531;28;20181;-78
2021/01/23 05:20:28;;;;;;;19.90;12.07;;;1.50;99.90;;;;;;4937851;29;20221;-77
2021/01/23 05:22:54;;;;;;;22.37;11.53;;;1.60;99.90;;;;;;4954424;29;20668;-77
2021/01/23 05:25:19;;;;;;;18.03;11.57;;;1.70;99.90;;;;;;4970499;28;20286;-79
2021/01/23 05:27:45;;;;;;;19.77;11.37;;;1.60;99.90;;;;;;4970954;28;20199;-81
2021/01/23 05:30:11;;;;;;;19.97;11.83;;;1.70;99.90;;;;;;4954448;29;20204;-79
2021/01/23 05:32:37;;;;;;;19.47;11.80;;;1.80;99.90;;;;;;4970153;28;20563;-79
2021/01/23 05:35:15;;;;;;;22.37;12.77;;;1.80;99.90;;;;;;4954288;29;20193;-77
2021/01/23 05:37:41;;;;;;;17.17;11.50;;;1.80;99.90;;;;;;4954250;29;20227;-80
2021/01/23 05:40:07;;;;;;;19.83;11.93;;;1.90;99.90;;;;;;4954098;29;20245;-78
2021/01/23 05:42:42;;;;;;;18.50;10.87;;;1.80;99.90;;;;;;4954364;29;20188;-77
2021/01/23 05:45:13;;;;;;;19.13;12.20;;;1.80;99.90;;;;;;4938170;29;20216;-79
2021/01/23 05:47:39;;;;;;;20.97;12.23;;;1.80;99.90;;;;;;4953866;29;20555;-76
2021/01/23 05:50:06;;;;;;;22.47;11.57;;;1.70;99.90;;;;;;4954060;29;20244;-77
2021/01/23 05:52:32;;;;;;;21.33;12.27;;;1.60;99.90;;;;;;4953817;29;20653;-77
2021/01/23 05:54:57;;;;;;;20.37;11.07;;;1.70;99.90;;;;;;4953872;29;20185;-76
2021/01/23 05:57:23;;;;;;;22.63;11.50;;;1.60;99.90;;;;;;4969860;28;20641;-77
2021/01/23 05:59:49;;;;;;;18.40;11.50;;;1.70;99.90;;;;;;4969688;28;20197;-77
2021/01/23 06:02:14;;;;;;;18.33;11.77;;;1.70;99.90;;;;;;4953613;29;20196;-79
2021/01/23 06:04:42;;;;;;;20.37;11.80;;;1.70;99.90;;;;;;4969763;28;20185;-78
2021/01/23 06:07:08;;;;;;;19.67;11.97;;;1.80;99.90;;;;;;4969414;28;20211;-79
2021/01/23 06:09:42;;;;;;;19.63;10.93;;;1.80;99.90;;;;;;4969638;28;20276;-79
2021/01/23 06:12:33;;;;;;;16.77;10.40;;;2.00;99.90;;;;;;4970541;28;20177;-77
2021/01/23 06:14:59;;;;;;;17.70;10.90;;;2.00;99.90;;;;;;4972885;28;20198;-77
2021/01/23 06:17:47;;;;;;;16.93;11.30;;;2.00;99.90;;;;;;4940572;28;20175;-77
2021/01/23 06:20:40;;;;;;;19.97;10.70;;;2.00;99.90;;;;;;4972592;28;20228;-81
2021/01/23 06:23:13;;;;;;;15.70;10.43;;;2.00;99.90;;;;;;4973971;28;20173;-78
2021/01/23 06:25:51;;;;;;;17.77;10.43;;;2.10;99.90;;;;;;4956633;28;20713;-80
2021/01/23 06:28:16;;;;;;;19.97;10.77;;;2.10;99.90;;;;;;4973682;28;20187;-80
2021/01/23 06:30:42;;;;;;;17.87;10.07;;;2.20;99.90;;;;;;4973478;28;20182;-78
2021/01/23 06:33:23;;;;;;;17.03;10.37;;;2.20;99.90;;;;;;4940561;28;20263;-79
2021/01/23 06:36:03;;;;;;;16.67;9.87;;;2.30;99.90;;;;;;4988561;28;20265;-78
2021/01/23 06:38:29;;;;;;;15.63;10.33;;;2.30;99.90;;;;;;4974063;28;20262;-79
2021/01/23 06:40:55;;;;;;;15.73;10.53;;;2.40;99.90;;;;;;4940342;28;20216;-80
2021/01/23 06:43:20;;;;;;;16.83;10.60;;;2.50;99.90;;;;;;4973532;28;20182;-77
2021/01/23 06:45:46;;;;;;;15.20;10.43;;;2.50;99.90;;;;;;4923846;28;20303;-78
2021/01/23 06:48:11;;;;;;;13.20;9.33;;;2.60;99.90;;;;;;4940007;28;20195;-78
2021/01/23 06:50:39;;;;;;;18.30;9.90;;;2.60;99.90;;;;;;4955151;28;20173;-82
2021/01/23 06:53:06;;;;;;;18.53;9.70;;;2.60;99.90;;;;;;4956061;28;20169;-80
2021/01/23 06:55:51;;;;;;;16.90;9.93;;;2.70;99.90;;;;;;4971953;28;20191;-78
2021/01/23 06:58:26;;;;;;;15.67;9.70;;;2.70;99.90;;;;;;4970535;28;20196;-77
2021/01/23 07:00:58;;;;;;;15.67;9.93;;;2.70;99.90;;;;;;4956341;28;20729;-79
2021/01/23 07:03:23;;;;;;;16.67;8.37;;;2.70;99.90;;;;;;4940576;28;20545;-81
2021/01/23 07:05:53;;;;;;;15.00;9.60;;;2.80;99.90;;;;;;4924020;28;20212;-78
2021/01/23 07:08:20;;;;;;;16.30;9.60;;;2.80;99.90;;;;;;4955999;28;20182;-79
2021/01/23 07:10:45;;;;;;;12.97;8.83;;;2.90;99.90;;;;;;4924159;28;20176;-78
2021/01/23 07:13:11;;;;;;;14.30;8.40;;;3.00;99.90;;;;;;4972031;28;20207;-78
2021/01/23 07:15:37;;;;;;;16.63;9.20;;;3.00;99.90;;;;;;4971415;28;20207;-77
2021/01/23 07:18:12;;;;;;;13.50;8.80;;;3.00;99.90;;;;;;4955338;28;20187;-78
2021/01/23 07:20:38;;;;;;;15.07;9.03;;;3.00;99.90;;;;;;4952398;29;20734;-81
2021/01/23 07:23:03;;;;;;;12.77;8.43;;;3.00;99.90;;;;;;4943108;28;20255;-81
2021/01/23 07:25:29;;;;;;;12.43;8.33;;;3.10;99.90;;;;;;4971248;28;20210;-78
2021/01/23 07:27:54;;;;;;;13.50;8.50;;;3.10;99.90;;;;;;4971559;28;20180;-77
2021/01/23 07:30:20;;;;;;;18.67;9.07;;;3.00;99.90;;;;;;4976246;28;20206;-80
2021/01/23 07:32:46;;;;;;;17.93;8.33;;;2.90;99.90;;;;;;4955498;28;20184;-81
2021/01/23 07:35:13;;;;;;;15.37;7.87;;;3.00;99.90;;;;;;4955745;28;20181;-78
2021/01/23 07:37:42;;;;;;;13.13;8.63;;;3.00;99.90;;;;;;4961913;28;20200;-78
2021/01/23 07:40:09;;;;;;;15.10;9.23;;;3.00;99.90;;;;;;4964405;28;20305;-80
2021/01/23 07:42:35;;;;;;;13.13;8.07;;;3.00;99.90;;;;;;4965853;28;20199;-79
2021/01/23 07:45:04;;;;;;;15.30;8.87;;;2.90;99.90;;;;;;4955679;28;20177;-76
2021/01/23 07:47:30;;;;;;;13.60;8.60;;;2.90;99.90;;;;;;4952617;28;20189;-82
2021/01/23 07:50:09;;;;;;;10.73;7.50;;;2.90;99.90;;;;;;4922145;29;20216;-80
2021/01/23 07:52:35;;;;;;;12.63;7.67;;;2.90;99.90;;;;;;4939131;29;20260;-79
2021/01/23 07:55:00;;;;;;;15.03;8.30;;;3.00;99.90;;;;;;4923916;29;20210;-84
2021/01/23 07:57:26;;;;;;;14.53;7.60;;;3.00;99.90;;;;;;4912863;29;20269;-82
2021/01/23 07:59:51;;;;;;;13.17;8.20;;;3.10;99.90;;;;;;4931452;29;20299;-82
2021/01/23 08:02:17;;;;;;;10.77;7.20;;;3.20;99.90;;;;;;4916118;29;20205;-84
2021/01/23 08:04:55;;;;;;;13.60;8.17;;;3.20;99.90;;;;;;4921182;28;20173;-83
2021/01/23 08:07:30;;;;;;;11.93;7.30;;;3.20;99.90;;;;;;4962919;28;20176;-81
2021/01/23 08:10:04;;;;;;;12.23;7.60;;;3.20;99.90;;;;;;4944775;28;20196;-79
2021/01/23 08:12:29;;;;;;;14.30;7.67;;;3.30;99.90;;;;;;4973375;28;20257;-83
2021/01/23 08:14:55;;;;;;;12.00;7.40;;;3.30;99.90;;;;;;4967691;28;20202;-83
2021/01/23 08:17:46;;;;;;;10.97;7.07;;;3.20;99.90;;;;;;4952382;28;20814;-84
2021/01/23 08:20:14;;;;;;;8.73;6.57;;;3.30;99.90;;;;;;4943838;29;20216;-85
2021/01/23 08:22:58;;;;;;;9.67;6.97;;;3.40;99.90;;;;;;5026163;23;20328;-78
2021/01/23 08:25:26;;;;;;;11.50;7.43;;;3.40;99.90;;;;;;5033790;28;20212;-76
2021/01/23 08:27:51;;;;;;;13.10;7.23;;;3.40;99.90;;;;;;5050158;28;20203;-77
2021/01/23 08:30:17;;;;;;;11.90;8.00;;;3.50;99.90;;;;;;5033791;28;20725;-76
2021/01/23 08:32:43;;;;;;;10.60;6.90;;;3.50;99.90;;;;;;5020329;28;20762;-77
2021/01/23 08:35:09;;;;;;;14.53;7.17;;;3.50;99.90;;;;;;5038453;28;20177;-80
2021/01/23 08:37:34;;;;;;;10.50;6.53;;;3.50;99.90;;;;;;5037216;28;20181;-78
2021/01/23 08:40:00;;;;;;;8.87;6.47;;;3.60;99.90;;;;;;5036720;28;20178;-78
2021/01/23 08:42:25;;;;;;;10.70;7.03;;;3.70;99.90;;;;;;5036628;28;20197;-79
2021/01/23 08:44:51;;;;;;;10.90;6.67;;;3.70;99.90;;;;;;5037112;28;20185;-80
2021/01/23 08:47:17;;;;;;;12.87;6.87;;;3.70;99.90;;;;;;5036586;28;20182;-77
2021/01/23 08:49:42;;;;;;;10.20;6.40;;;3.70;99.90;;;;;;5036763;28;20182;-79
2021/01/23 08:52:09;;;;;;;12.03;6.90;;;3.70;99.90;;;;;;5036969;28;20207;-78
2021/01/23 08:54:34;;;;;;;10.53;6.80;;;3.70;99.90;;;;;;5036732;28;20182;-79
2021/01/23 08:57:00;;;;;;;9.93;6.67;;;3.80;99.90;;;;;;5036620;28;20181;-78
2021/01/23 08:59:26;;;;;;;9.00;5.93;;;3.90;99.90;;;;;;5053260;28;20178;-80
2021/01/23 09:01:51;;;;;;;9.17;6.60;;;3.80;99.90;;;;;;5038048;28;20224;-80
2021/01/23 09:04:17;;;;;;;11.00;6.67;;;3.80;99.90;;;;;;5038093;28;20281;-80
2021/01/23 09:06:44;;;;;;;9.33;6.57;;;3.90;99.90;;;;;;5039853;28;20300;-78
2021/01/23 09:09:10;;;;;;;11.57;6.63;;;3.80;99.90;;;;;;5040329;28;20179;-77
2021/01/23 09:11:37;;;;;;;13.33;6.80;;;3.80;99.90;;;;;;5036463;28;20270;-78
2021/01/23 09:14:03;;;;;;;10.67;6.50;;;3.80;99.90;;;;;;5036354;28;20214;-79
2021/01/23 09:16:29;;;;;;;9.50;6.10;;;3.80;99.90;;;;;;5052757;28;20220;-79
2021/01/23 09:18:54;;;;;;;8.07;6.27;;;3.80;99.90;;;;;;5052970;28;20213;-79
2021/01/23 09:21:20;;;;;;;10.63;6.87;;;3.90;99.90;;;;;;5035928;28;20214;-77
2021/01/23 09:23:46;;;;;;;10.77;6.90;;;4.00;99.90;;;;;;5052894;28;20185;-78
2021/01/23 09:26:11;;;;;;;12.63;7.57;;;4.00;99.90;;;;;;5052202;28;20289;-78
2021/01/23 09:28:37;;;;;;;14.53;7.40;;;4.10;99.90;;;;;;5019574;28;20253;-78
2021/01/23 09:31:03;;;;;;;11.07;6.83;;;4.20;99.90;;;;;;5017496;28;20280;-77
2021/01/23 09:33:28;;;;;;;8.87;6.60;;;4.30;99.90;;;;;;5016749;28;20170;-76
2021/01/23 09:35:55;;;;;;;8.50;5.93;;;4.30;99.90;;;;;;5032486;28;20179;-76
2021/01/23 09:38:21;;;;;;;11.97;6.77;;;4.30;99.90;;;;;;4999959;28;20784;-79
2021/01/23 09:40:46;;;;;;;10.57;6.90;;;4.30;99.90;;;;;;4999523;28;20221;-77
2021/01/23 09:43:12;;;;;;;11.13;6.47;;;4.40;99.90;;;;;;5040380;28;20178;-77
2021/01/23 09:45:37;;;;;;;11.77;6.83;;;4.40;99.90;;;;;;5032958;28;20209;-76
2021/01/23 09:48:04;;;;;;;10.70;7.13;;;4.40;99.90;;;;;;5034911;28;20243;-76
2021/01/23 09:50:29;;;;;;;8.67;6.83;;;4.40;99.90;;;;;;5051593;28;20177;-76
2021/01/23 09:52:55;;;;;;;9.60;6.30;;;4.40;99.90;;;;;;5051836;28;20203;-77
2021/01/23 09:55:20;;;;;;;10.63;6.90;;;4.40;99.90;;;;;;5035864;28;20190;-77
2021/01/23 09:57:46;;;;;;;9.07;6.43;;;4.40;99.90;;;;;;5052855;28;20194;-77
2021/01/23 10:00:12;;;;;;;11.37;7.27;;;4.50;99.90;;;;;;5020363;28;20221;-77
2021/01/23 10:02:37;;;;;;;11.93;7.43;;;4.50;99.90;;;;;;5053573;28;20198;-76
2021/01/23 10:05:03;;;;;;;12.93;7.70;;;4.60;99.90;;;;;;5035624;28;20192;-76
2021/01/23 10:07:29;;;;;;;11.97;7.40;;;4.50;99.90;;;;;;5036179;28;20573;-76
2021/01/23 10:09:55;;;;;;;10.00;7.10;;;4.50;99.90;;;;;;5037075;28;20176;-78
2021/01/23 10:12:21;;;;;;;10.83;6.90;;;4.60;99.90;;;;;;5033109;28;20198;-78
2021/01/23 10:14:47;;;;;;;11.97;7.83;;;4.70;99.90;;;;;;5037128;28;20189;-79
2021/01/23 10:17:13;;;;;;;12.10;6.30;;;4.80;99.90;;;;;;5036539;28;20188;-75
2021/01/23 10:19:39;;;;;;;9.27;6.40;;;4.90;99.90;;;;;;5050501;28;20573;-78
2021/01/23 10:22:05;;;;;;;11.50;6.53;;;5.00;99.90;;;;;;5015100;28;20285;-76
2021/01/23 10:24:30;;;;;;;9.23;6.20;;;5.10;99.90;;;;;;5048246;28;20194;-75
2021/01/23 10:26:56;;;;;;;7.93;6.00;;;5.20;99.90;;;;;;5016463;28;20213;-75
2021/01/23 10:29:22;;;;;;;9.03;6.07;;;5.20;99.90;;;;;;5015675;28;20265;-76
2021/01/23 10:31:47;;;;;;;11.10;6.03;;;5.20;99.90;;;;;;5014909;28;20209;-77
2021/01/23 10:34:13;;;;;;;9.97;6.30;;;5.20;99.90;;;;;;5048988;28;20604;-76
2021/01/23 10:36:40;;;;;;;9.00;6.07;;;5.30;99.90;;;;;;5048890;28;20653;-76
2021/01/23 10:39:06;;;;;;;9.17;5.77;;;5.30;99.90;;;;;;5031510;28;20240;-77
2021/01/23 10:41:32;;;;;;;10.43;5.90;;;5.30;99.90;;;;;;5047715;28;20202;-77
2021/01/23 10:43:58;;;;;;;9.23;6.27;;;5.30;99.90;;;;;;5015548;28;20186;-78
2021/01/23 10:46:23;;;;;;;8.53;6.10;;;5.30;99.90;;;;;;5014963;28;20214;-78
2021/01/23 10:48:49;;;;;;;8.00;5.90;;;5.20;99.90;;;;;;5051229;28;20185;-78
2021/01/23 10:51:14;;;;;;;9.07;5.73;;;5.20;99.90;;;;;;5034414;28;20202;-79
2021/01/23 10:53:40;;;;;;;9.23;6.00;;;5.30;99.90;;;;;;5034693;28;20191;-76
2021/01/23 10:56:06;;;;;;;8.03;5.77;;;5.40;99.90;;;;;;5017519;28;20189;-76
2021/01/23 10:58:33;;;;;;;7.97;6.17;;;5.30;99.90;;;;;;5031776;28;20190;-78
2021/01/23 11:00:59;;;;;;;15.67;7.10;;;5.20;99.90;;;;;;5051104;28;20301;-80
2021/01/23 11:03:24;;;;;;;8.27;5.47;;;5.30;99.90;;;;;;5015350;28;20215;-80
2021/01/23 11:05:51;;;;;;;9.30;5.23;;;5.50;99.90;;;;;;5031340;28;20201;-79
2021/01/23 11:08:17;;;;;;;7.10;4.63;;;5.70;99.90;;;;;;5031620;28;20212;-78
2021/01/23 11:10:43;;;;;;;6.63;4.13;;;5.80;99.90;;;;;;5014071;28;20265;-76
2021/01/23 11:13:08;;;;;;;9.43;5.07;;;5.90;99.90;;;;;;5014176;28;20205;-77
2021/01/23 11:15:34;;;;;;;5.97;3.57;;;6.00;99.90;;;;;;5049147;28;20186;-76
2021/01/23 11:17:59;;;;;;;5.87;2.87;;;6.00;99.90;;;;;;5033005;28;20183;-75
2021/01/23 11:20:26;;;;;;;6.40;3.80;;;5.90;99.90;;;;;;5033200;28;20193;-76
2021/01/23 11:22:51;;;;;;;9.00;3.90;;;6.00;99.90;;;;;;5049135;28;20220;-75
2021/01/23 11:25:17;;;;;;;6.73;4.07;;;5.80;99.90;;;;;;5030374;28;20210;-77
2021/01/23 11:27:42;;;;;;;6.83;4.00;;;5.90;99.90;;;;;;5025222;28;20232;-76
2021/01/23 11:30:10;;;;;;;7.00;4.20;;;5.90;99.90;;;;;;5043682;28;20660;-76
2021/01/23 11:32:36;;;;;;;5.10;4.00;;;6.00;99.90;;;;;;5037162;28;20201;-74
2021/01/23 11:35:02;;;;;;;6.20;4.30;;;5.90;99.90;;;;;;5053771;28;20232;-76
2021/01/23 11:37:28;;;;;;;7.97;4.13;;;5.90;99.90;;;;;;5027847;28;20185;-75
2021/01/23 11:39:53;;;;;;;6.27;4.03;;;6.00;99.90;;;;;;5034820;28;20182;-80
2021/01/23 11:42:19;;;;;;;5.53;4.23;;;6.00;99.90;;;;;;5039826;28;20277;-79
2021/01/23 11:44:45;;;;;;;8.70;4.20;;;6.00;99.90;;;;;;5037768;28;20185;-79
2021/01/23 11:47:11;;;;;;;6.77;4.27;;;5.90;99.90;;;;;;5038976;28;20204;-78
2021/01/23 11:49:36;;;;;;;5.80;4.00;;;5.90;99.90;;;;;;5022560;28;20625;-77
2021/01/23 11:52:03;;;;;;;5.03;3.60;;;6.00;99.90;;;;;;5034490;28;20198;-75
2021/01/23 11:54:28;;;;;;;7.97;4.00;;;6.00;99.90;;;;;;5055195;28;20266;-77
2021/01/23 11:56:54;;;;;;;8.20;4.00;;;6.10;99.90;;;;;;5055936;28;20201;-77
2021/01/23 11:59:19;;;;;;;7.67;3.60;;;6.10;99.90;;;;;;5054755;28;20302;-78
2021/01/23 12:01:45;;;;;;;5.30;3.43;;;6.10;99.90;;;;;;5038159;28;20206;-76
2021/01/23 12:04:11;;;;;;;5.30;2.93;;;6.10;99.90;;;;;;5021550;28;20208;-78
2021/01/23 12:06:36;;;;;;;8.83;3.33;;;6.40;99.90;;;;;;5039265;28;20692;-79
2021/01/23 12:09:02;;;;;;;4.63;3.07;;;6.60;99.90;;;;;;5053724;28;20185;-78
2021/01/23 12:11:28;;;;;;;6.00;3.07;;;6.80;99.90;;;;;;5037765;28;20213;-82
2021/01/23 12:13:53;;;;;;;6.83;3.40;;;6.90;99.90;;;;;;5023310;28;20178;-79
2021/01/23 12:16:19;;;;;;;7.83;3.40;;;6.90;99.90;;;;;;5022293;28;20633;-79
2021/01/23 12:18:45;;;;;;;6.57;3.40;;;6.90;99.90;;;;;;5022662;28;20212;-81
2021/01/23 12:21:11;;;;;;;6.73;2.80;;;6.80;99.90;;;;;;5020272;28;20692;-78
2021/01/23 12:23:38;;;;;;;6.07;2.60;;;6.60;99.90;;;;;;5013631;28;20569;-79
2021/01/23 12:26:03;;;;;;;4.53;2.93;;;6.60;99.90;;;;;;5005605;28;20207;-79
2021/01/23 12:28:30;;;;;;;7.73;2.90;;;6.40;99.90;;;;;;5049698;28;20719;-78
2021/01/23 12:30:55;;;;;;;5.33;3.30;;;6.30;99.90;;;;;;5053255;28;20205;-77
2021/01/23 12:33:21;;;;;;;5.20;2.80;;;6.40;99.90;;;;;;5053367;28;20227;-77
2021/01/23 12:35:47;;;;;;;6.47;2.70;;;6.30;99.90;;;;;;5053497;28;20191;-77
2021/01/23 12:38:12;;;;;;;7.43;3.10;;;6.20;99.90;;;;;;5055621;28;20194;-80
2021/01/23 12:40:38;;;;;;;4.80;2.90;;;6.20;99.90;;;;;;5039482;28;20174;-79
2021/01/23 12:43:03;;;;;;;4.33;2.60;;;6.30;99.90;;;;;;5022784;28;20180;-82
2021/01/23 12:45:29;;;;;;;5.20;2.57;;;6.60;99.90;;;;;;5023372;28;20216;-80